createdAt,value
2022-11-15T00:00:02.886Z,76.42
2022-11-15T00:03:05.535Z,76.15
2022-11-15T00:05:52.995Z,76.16
2022-11-15T00:08:40.627Z,76.67
2022-11-15T00:11:27.849Z,76.25
2022-11-15T00:14:15.165Z,76.79
2022-11-15T00:17:02.291Z,76.52
2022-11-15T00:19:50.845Z,77.11
2022-11-15T00:22:38.065Z,76.62
2022-11-15T00:25:25.560Z,76.73
2022-11-15T00:28:13.227Z,76.65
2022-11-15T00:31:04.408Z,76.41
2022-11-15T00:33:51.221Z,76.54
2022-11-15T00:36:38.577Z,76.96
2022-11-15T00:39:25.496Z,77.04
2022-11-15T00:42:13.326Z,77.44
2022-11-15T00:45:00.349Z,78.01
2022-11-15T00:47:48.382Z,78.11
2022-11-15T00:50:35.524Z,77.85
2022-11-15T00:53:23.212Z,78.04
2022-11-15T00:56:10.192Z,78.10
2022-11-15T00:58:57.575Z,78.14
2022-11-15T01:01:45.102Z,78.02
2022-11-15T01:04:32.740Z,78.18
2022-11-15T01:07:20.113Z,78.22
2022-11-15T01:10:07.999Z,77.96
2022-11-15T01:12:55.319Z,77.68
2022-11-15T01:15:43.127Z,77.92
2022-11-15T01:18:30.273Z,77.80
2022-11-15T01:21:19.201Z,77.65
2022-11-15T01:24:06.459Z,77.84
2022-11-15T01:26:53.950Z,77.54
2022-11-15T01:29:41.206Z,77.49
2022-11-15T01:32:28.327Z,77.33
2022-11-15T01:35:15.341Z,77.47
2022-11-15T01:38:02.857Z,77.83
2022-11-15T01:40:50.401Z,77.07
2022-11-15T01:43:38.236Z,77.08
2022-11-15T01:46:28.121Z,77.27
2022-11-15T01:49:20.869Z,77.77
2022-11-15T01:52:14.665Z,77.99
2022-11-15T01:55:07.907Z,77.80
2022-11-15T01:57:57.483Z,77.37
2022-11-15T02:00:45.293Z,77.94
2022-11-15T02:03:45.450Z,77.88
2022-11-15T02:06:32.828Z,77.90
2022-11-15T02:09:20.501Z,78.27
2022-11-15T02:12:09.974Z,78.43
2022-11-15T02:14:57.884Z,78.49
2022-11-15T02:18:03.875Z,78.12
2022-11-15T02:20:51.307Z,78.20
2022-11-15T02:23:58.127Z,78.18
2022-11-15T02:27:04.043Z,78.38
2022-11-15T02:29:51.467Z,77.95
2022-11-15T02:32:45.651Z,78.31
2022-11-15T02:35:50.283Z,78.22
2022-11-15T02:38:56.243Z,78.15
2022-11-15T02:41:48.583Z,78.33
2022-11-15T02:44:38.429Z,78.36
2022-11-15T02:47:28.813Z,78.05
2022-11-15T02:50:20.444Z,77.95
2022-11-15T02:53:08.630Z,78.85
2022-11-15T02:55:57.900Z,78.51
2022-11-15T02:59:02.221Z,78.99
2022-11-15T03:02:08.080Z,78.53
2022-11-15T03:05:07.315Z,78.48
2022-11-15T03:08:10.879Z,78.69
2022-11-15T03:10:58.006Z,78.77
2022-11-15T03:13:50.962Z,78.77
2022-11-15T03:16:39.636Z,78.84
2022-11-15T03:19:41.789Z,79.00
2022-11-15T03:22:30.452Z,78.64
2022-11-15T03:25:21.455Z,78.41
2022-11-15T03:28:11.012Z,78.66
2022-11-15T03:30:59.395Z,79.05
2022-11-15T03:33:46.806Z,79.11
2022-11-15T03:36:35.357Z,80.24
2022-11-15T03:39:23.036Z,80.37
2022-11-15T03:42:30.792Z,80.24
2022-11-15T03:45:23.748Z,80.70
2022-11-15T03:48:16.090Z,80.18
2022-11-15T03:51:04.336Z,80.12
2022-11-15T03:53:51.761Z,80.18
2022-11-15T03:56:38.957Z,79.95
2022-11-15T03:59:26.410Z,79.86
2022-11-15T04:02:13.906Z,79.61
2022-11-15T04:05:00.860Z,79.48
2022-11-15T04:07:47.923Z,79.80
2022-11-15T04:10:35.704Z,79.85
2022-11-15T04:13:23.233Z,79.62
2022-11-15T04:16:10.558Z,79.85
2022-11-15T04:19:16.825Z,80.41
2022-11-15T04:22:22.685Z,81.38
2022-11-15T04:25:10.464Z,81.23
2022-11-15T04:27:57.740Z,80.88
2022-11-15T04:30:45.012Z,80.87
2022-11-15T04:33:32.199Z,80.51
2022-11-15T04:36:38.757Z,80.29
2022-11-15T04:39:25.776Z,80.80
2022-11-15T04:42:13.478Z,79.96
2022-11-15T04:45:00.247Z,80.35
2022-11-15T04:47:47.985Z,80.29
2022-11-15T04:50:35.070Z,79.91
2022-11-15T04:53:22.689Z,79.47
2022-11-15T04:56:10.130Z,79.93
2022-11-15T04:58:57.558Z,80.01
2022-11-15T05:01:45.284Z,80.55
2022-11-15T05:04:33.019Z,80.49
2022-11-15T05:07:20.492Z,80.91
2022-11-15T05:10:07.974Z,81.10
2022-11-15T05:12:55.397Z,80.82
2022-11-15T05:15:42.793Z,80.51
2022-11-15T05:18:30.313Z,79.92
2022-11-15T05:21:17.885Z,80.29
2022-11-15T05:24:05.820Z,80.14
2022-11-15T05:26:53.348Z,80.22
2022-11-15T05:29:40.568Z,80.43
2022-11-15T05:32:28.917Z,80.10
2022-11-15T05:35:36.416Z,80.19
2022-11-15T05:38:24.622Z,80.12
2022-11-15T05:41:11.956Z,80.06
2022-11-15T05:43:59.511Z,80.38
2022-11-15T05:46:47.247Z,80.06
2022-11-15T05:49:36.618Z,79.91
2022-11-15T05:52:26.500Z,79.90
2022-11-15T05:55:14.233Z,80.31
2022-11-15T05:58:02.581Z,79.82
2022-11-15T06:00:50.140Z,80.03
2022-11-15T06:03:37.536Z,79.84
2022-11-15T06:06:24.860Z,79.74
2022-11-15T06:09:12.289Z,79.66
2022-11-15T06:11:59.256Z,79.46
2022-11-15T06:14:47.138Z,79.18
2022-11-15T06:17:34.749Z,79.03
2022-11-15T06:20:22.196Z,78.97
2022-11-15T06:23:09.929Z,78.96
2022-11-15T06:25:58.890Z,79.16
2022-11-15T06:28:46.011Z,79.34
2022-11-15T06:31:34.764Z,79.18
2022-11-15T06:34:21.989Z,78.77
2022-11-15T06:37:09.322Z,78.78
2022-11-15T06:39:56.536Z,78.67
2022-11-15T06:42:44.269Z,78.31
2022-11-15T06:45:32.126Z,78.10
2022-11-15T06:48:19.708Z,78.40
2022-11-15T06:51:06.963Z,78.22
2022-11-15T06:53:54.204Z,78.15
2022-11-15T06:56:41.400Z,78.03
2022-11-15T06:59:28.415Z,77.84
2022-11-15T07:02:15.909Z,77.72
2022-11-15T07:05:03.379Z,77.91
2022-11-15T07:07:54.687Z,78.11
2022-11-15T07:10:41.706Z,77.97
2022-11-15T07:13:29.818Z,78.07
2022-11-15T07:16:17.378Z,77.89
2022-11-15T07:19:04.807Z,77.55
2022-11-15T07:21:51.921Z,77.65
2022-11-15T07:24:39.655Z,77.67
2022-11-15T07:27:26.676Z,77.36
2022-11-15T07:30:15.679Z,77.64
2022-11-15T07:33:03.264Z,77.35
2022-11-15T07:35:50.219Z,77.13
2022-11-15T07:38:42.529Z,77.32
2022-11-15T07:41:31.345Z,77.60
2022-11-15T07:44:18.500Z,77.85
2022-11-15T07:47:05.880Z,77.20
2022-11-15T07:49:53.397Z,77.30
2022-11-15T07:52:40.681Z,76.76
2022-11-15T07:55:30.460Z,75.64
2022-11-15T07:58:18.993Z,75.51
2022-11-15T08:01:07.230Z,75.98
2022-11-15T08:03:54.755Z,75.88
2022-11-15T08:06:41.802Z,75.78
2022-11-15T08:09:29.498Z,76.05
2022-11-15T08:12:16.347Z,75.66
2022-11-15T08:15:04.488Z,75.80
2022-11-15T08:18:05.643Z,75.11
2022-11-15T08:20:53.268Z,74.53
2022-11-15T08:23:40.386Z,74.60
2022-11-15T08:26:30.465Z,74.57
2022-11-15T08:29:18.619Z,74.74
2022-11-15T08:32:06.093Z,75.21
2022-11-15T08:34:53.471Z,75.13
2022-11-15T08:37:40.897Z,74.62
2022-11-15T08:40:28.220Z,74.04
2022-11-15T08:43:15.908Z,74.20
2022-11-15T08:46:02.768Z,73.92
2022-11-15T08:48:50.499Z,73.34
2022-11-15T08:51:37.413Z,73.50
2022-11-15T08:54:25.249Z,73.12
2022-11-15T08:57:12.166Z,73.33
2022-11-15T08:59:59.590Z,72.65
2022-11-15T09:02:46.710Z,72.08
2022-11-15T09:05:36.669Z,72.38
2022-11-15T09:11:31.420Z,72.79
2022-11-15T09:14:18.533Z,72.52
2022-11-15T09:17:09.512Z,72.56
2022-11-15T09:19:56.974Z,72.92
2022-11-15T09:22:44.397Z,73.11
2022-11-15T09:25:31.618Z,72.57
2022-11-15T09:28:19.453Z,72.18
2022-11-15T09:31:06.983Z,72.79
2022-11-15T09:33:54.307Z,72.40
2022-11-15T09:36:42.142Z,72.63
2022-11-15T09:39:29.568Z,72.47
2022-11-15T09:42:28.741Z,72.54
2022-11-15T09:45:23.981Z,72.70
2022-11-15T09:48:33.035Z,72.53
2022-11-15T09:51:25.322Z,72.58
2022-11-15T09:56:45.627Z,72.82
2022-11-15T09:59:16.912Z,72.84
2022-11-15T10:02:06.693Z,73.44
2022-11-15T10:04:35.484Z,73.96
2022-11-15T10:07:07.985Z,73.74
2022-11-15T10:09:43.983Z,73.65
2022-11-15T10:12:14.616Z,73.72
2022-11-15T10:14:43.338Z,73.53
2022-11-15T10:17:17.966Z,73.09
2022-11-15T10:19:52.179Z,73.20
2022-11-15T10:22:53.224Z,73.30
2022-11-15T10:25:26.117Z,73.08
2022-11-15T10:28:12.103Z,72.83
2022-11-15T10:30:42.226Z,72.52
2022-11-15T10:33:20.464Z,72.69
2022-11-15T10:35:48.946Z,71.94
2022-11-15T10:38:17.506Z,72.34
2022-11-15T10:40:46.597Z,71.47
2022-11-15T10:43:17.533Z,72.26
2022-11-15T10:45:46.786Z,72.21
2022-11-15T10:48:15.100Z,71.60
2022-11-15T10:50:48.059Z,71.57
2022-11-15T10:53:28.747Z,72.14
2022-11-15T10:55:59.070Z,71.64
2022-11-15T10:58:30.803Z,71.38
2022-11-15T11:01:26.198Z,71.84
2022-11-15T11:04:04.481Z,72.47
2022-11-15T11:06:53.033Z,72.39
2022-11-15T11:09:30.933Z,72.16
2022-11-15T11:12:00.048Z,72.76
2022-11-15T11:14:32.884Z,72.44
2022-11-15T11:17:21.504Z,73.06
2022-11-15T11:19:59.267Z,72.57
2022-11-15T11:22:46.489Z,72.82
2022-11-15T11:25:31.971Z,72.74
2022-11-15T11:28:00.452Z,72.86
2022-11-15T11:30:43.804Z,73.14
2022-11-15T11:33:12.572Z,73.28
2022-11-15T11:35:47.821Z,73.59
2022-11-15T11:38:39.540Z,73.75
2022-11-15T11:41:16.827Z,74.30
2022-11-15T11:43:58.211Z,73.89
2022-11-15T11:46:33.043Z,73.93
2022-11-15T11:49:01.422Z,73.83
2022-11-15T11:51:35.741Z,73.94
2022-11-15T11:54:20.914Z,74.00
2022-11-15T11:56:49.772Z,74.60
2022-11-15T11:59:18.230Z,74.47
2022-11-15T12:01:47.047Z,74.49
2022-11-15T12:04:33.787Z,74.42
2022-11-15T12:07:02.518Z,74.70
2022-11-15T12:09:31.160Z,74.70
2022-11-15T12:12:22.888Z,74.32
2022-11-15T12:14:53.110Z,74.58
2022-11-15T12:17:24.357Z,75.16
2022-11-15T12:19:53.909Z,75.00
2022-11-15T12:22:25.826Z,75.38
2022-11-15T12:25:06.188Z,75.83
2022-11-15T12:27:46.035Z,75.82
2022-11-15T12:30:16.997Z,75.70
2022-11-15T12:32:52.014Z,76.04
2022-11-15T12:35:26.739Z,75.74
2022-11-15T12:37:56.576Z,75.61
2022-11-15T12:40:26.164Z,76.02
2022-11-15T12:43:03.450Z,75.64
2022-11-15T12:45:35.106Z,75.69
2022-11-15T12:48:19.238Z,75.58
2022-11-15T12:50:56.353Z,75.77
2022-11-15T12:53:28.956Z,76.44
2022-11-15T12:56:03.236Z,76.20
2022-11-15T12:58:47.207Z,76.09
2022-11-15T13:01:37.349Z,76.00
2022-11-15T13:04:21.681Z,76.48
2022-11-15T13:06:51.372Z,77.24
2022-11-15T13:09:35.591Z,77.28
2022-11-15T13:12:15.542Z,77.65
2022-11-15T13:14:49.304Z,77.85
2022-11-15T13:17:20.695Z,77.59
2022-11-15T13:20:29.079Z,77.26
2022-11-15T13:23:29.546Z,76.89
2022-11-15T13:26:50.353Z,76.88
2022-11-15T13:29:20.476Z,76.63
2022-11-15T13:31:49.605Z,76.23
2022-11-15T13:34:49.394Z,75.96
2022-11-15T13:37:14.072Z,76.32
2022-11-15T13:39:42.666Z,76.35
2022-11-15T13:42:16.166Z,76.50
2022-11-15T13:44:58.371Z,76.60
2022-11-15T13:47:30.820Z,76.62
2022-11-15T13:49:59.877Z,76.59
2022-11-15T13:52:30.149Z,76.62
2022-11-15T13:55:01.684Z,76.73
2022-11-15T13:57:39.414Z,76.67
2022-11-15T14:00:25.675Z,76.85
2022-11-15T14:03:35.203Z,76.79
2022-11-15T14:06:47.762Z,76.88
2022-11-15T14:09:56.199Z,76.82
2022-11-15T14:13:07.661Z,76.53
2022-11-15T14:15:37.499Z,76.80
2022-11-15T14:18:06.388Z,76.88
2022-11-15T14:20:39.233Z,77.47
2022-11-15T14:23:19.940Z,77.78
2022-11-15T14:25:55.491Z,77.54
2022-11-15T14:28:24.175Z,77.02
2022-11-15T14:30:53.993Z,76.93
2022-11-15T14:33:25.748Z,76.54
2022-11-15T14:35:54.437Z,76.58
2022-11-15T14:38:23.120Z,76.58
2022-11-15T14:40:51.808Z,76.33
2022-11-15T14:43:20.183Z,76.50
2022-11-15T14:45:48.875Z,76.45
2022-11-15T14:48:17.356Z,76.42
2022-11-15T14:50:46.309Z,76.64
2022-11-15T14:53:18.628Z,76.80
2022-11-15T14:55:47.106Z,76.74
2022-11-15T14:58:15.483Z,76.89
2022-11-15T15:00:44.169Z,76.25
2022-11-15T15:03:12.650Z,76.51
2022-11-15T15:05:42.771Z,76.30
2022-11-15T15:08:11.594Z,76.41
2022-11-15T15:10:47.210Z,76.65
2022-11-15T15:13:20.712Z,76.47
2022-11-15T15:15:50.289Z,76.16
2022-11-15T15:18:21.435Z,75.97
2022-11-15T15:20:56.601Z,75.77
2022-11-15T15:23:27.133Z,75.82
2022-11-15T15:25:55.715Z,76.04
2022-11-15T15:28:24.198Z,76.62
2022-11-15T15:30:54.011Z,76.73
2022-11-15T15:33:23.115Z,76.54
2022-11-15T15:35:51.486Z,77.19
2022-11-15T15:38:20.377Z,77.62
2022-11-15T15:40:51.327Z,78.11
2022-11-15T15:43:20.031Z,77.88
2022-11-15T15:45:48.997Z,77.76
2022-11-15T15:48:17.944Z,78.36
2022-11-15T15:50:46.373Z,78.12
2022-11-15T15:53:15.065Z,78.36
2022-11-15T15:55:43.748Z,78.62
2022-11-15T15:58:12.025Z,78.71
2022-11-15T16:00:40.864Z,78.72
2022-11-15T16:03:09.394Z,78.73
2022-11-15T16:05:37.674Z,78.39
2022-11-15T16:08:06.461Z,78.52
2022-11-15T16:10:38.117Z,78.65
2022-11-15T16:13:06.702Z,78.86
2022-11-15T16:15:36.419Z,79.65
2022-11-15T16:18:05.202Z,79.25
2022-11-15T16:20:36.858Z,79.28
2022-11-15T16:23:09.073Z,79.27
2022-11-15T16:25:51.846Z,79.53
2022-11-15T16:28:23.500Z,79.41
2022-11-15T16:31:00.892Z,79.54
2022-11-15T16:33:30.072Z,79.43
2022-11-15T16:35:58.719Z,79.31
2022-11-15T16:38:27.258Z,79.40
2022-11-15T16:40:56.151Z,79.44
2022-11-15T16:43:25.386Z,79.17
2022-11-15T16:45:53.626Z,79.34
2022-11-15T16:48:26.824Z,79.35
2022-11-15T16:50:56.738Z,79.52
2022-11-15T16:53:25.630Z,80.12
2022-11-15T16:55:55.132Z,80.09
2022-11-15T16:58:23.819Z,80.26
2022-11-15T17:00:57.252Z,80.27
2022-11-15T17:03:25.702Z,80.86
2022-11-15T17:05:58.652Z,81.17
2022-11-15T17:08:28.812Z,80.98
2022-11-15T17:10:57.560Z,81.09
2022-11-15T17:13:26.046Z,81.13
2022-11-15T17:16:03.733Z,81.29
2022-11-15T17:18:32.890Z,81.07
2022-11-15T17:21:08.173Z,81.11
2022-11-15T17:23:37.003Z,81.24
2022-11-15T17:26:28.396Z,81.33
2022-11-15T17:28:55.777Z,81.59
2022-11-15T17:31:25.704Z,81.77
2022-11-15T17:33:54.277Z,81.65
2022-11-15T17:36:23.173Z,81.98
2022-11-15T17:38:58.051Z,81.94
2022-11-15T17:41:28.489Z,81.97
2022-11-15T17:43:58.716Z,82.06
2022-11-15T17:46:27.758Z,82.18
2022-11-15T17:48:57.155Z,82.10
2022-11-15T17:51:25.943Z,82.37
2022-11-15T17:53:55.512Z,82.45
2022-11-15T17:56:25.054Z,82.41
2022-11-15T17:58:55.354Z,82.28
2022-11-15T18:01:30.771Z,82.78
2022-11-15T18:04:00.871Z,82.75
2022-11-15T18:06:30.922Z,83.01
2022-11-15T18:08:59.374Z,83.04
2022-11-15T18:11:33.254Z,83.07
2022-11-15T18:14:02.967Z,83.17
2022-11-15T18:16:33.083Z,83.08
2022-11-15T18:19:01.880Z,83.37
2022-11-15T18:21:30.933Z,83.48
2022-11-15T18:24:00.271Z,83.46
2022-11-15T18:26:29.674Z,83.47
2022-11-15T18:29:03.170Z,83.48
2022-11-15T18:31:32.167Z,83.59
2022-11-15T18:34:00.954Z,83.86
2022-11-15T18:36:30.843Z,84.11
2022-11-15T18:39:02.537Z,84.53
2022-11-15T18:41:32.412Z,84.54
2022-11-15T18:44:01.641Z,84.49
2022-11-15T18:46:31.660Z,84.66
2022-11-15T18:49:01.163Z,84.66
2022-11-15T18:51:30.977Z,84.98
2022-11-15T18:54:00.585Z,85.21
2022-11-15T18:56:30.263Z,85.26
2022-11-15T18:58:59.906Z,85.04
2022-11-15T19:01:30.322Z,85.01
2022-11-15T19:03:59.120Z,85.02
2022-11-15T19:06:29.347Z,85.23
2022-11-15T19:08:59.156Z,85.27
2022-11-15T19:11:29.277Z,85.14
2022-11-15T19:14:04.929Z,85.15
2022-11-15T19:16:34.917Z,85.43
2022-11-15T19:19:04.963Z,85.54
2022-11-15T19:21:33.957Z,85.53
2022-11-15T19:24:02.749Z,85.70
2022-11-15T19:26:31.131Z,85.88
2022-11-15T19:29:00.544Z,86.00
2022-11-15T19:31:30.545Z,86.02
2022-11-15T19:33:59.966Z,85.81
2022-11-15T19:36:29.660Z,86.16
2022-11-15T19:38:59.680Z,86.38
2022-11-15T19:41:28.159Z,86.11
2022-11-15T19:43:56.439Z,86.24
2022-11-15T19:46:25.430Z,86.46
2022-11-15T19:48:54.428Z,86.52
2022-11-15T19:51:24.236Z,86.72
2022-11-15T19:53:54.177Z,86.80
2022-11-15T19:56:22.845Z,87.02
2022-11-15T19:58:55.213Z,86.86
2022-11-15T20:01:25.024Z,87.03
2022-11-15T20:03:54.945Z,86.96
2022-11-15T20:06:25.163Z,87.17
2022-11-15T20:08:53.644Z,87.09
2022-11-15T20:11:22.539Z,87.07
2022-11-15T20:13:50.964Z,87.07
2022-11-15T20:16:20.729Z,86.93
2022-11-15T20:18:49.956Z,87.20
2022-11-15T20:21:18.718Z,87.18
2022-11-15T20:23:47.974Z,87.23
2022-11-15T20:26:16.500Z,87.52
2022-11-15T20:28:45.291Z,87.73
2022-11-15T20:31:13.974Z,87.85
2022-11-15T20:33:42.871Z,87.70
2022-11-15T20:36:12.998Z,87.67
2022-11-15T20:38:41.774Z,87.96
2022-11-15T20:41:15.135Z,87.99
2022-11-15T20:43:43.926Z,88.16
2022-11-15T20:46:13.161Z,87.87
2022-11-15T20:48:41.944Z,88.02
2022-11-15T20:51:15.288Z,87.91
2022-11-15T20:53:44.454Z,88.12
2022-11-15T20:56:13.949Z,88.37
2022-11-15T20:58:42.841Z,88.40
2022-11-15T21:01:12.298Z,88.47
2022-11-15T21:03:40.972Z,88.37
2022-11-15T21:06:09.822Z,88.31
2022-11-15T21:08:56.841Z,88.34
2022-11-15T21:11:44.948Z,88.12
2022-11-15T21:14:13.669Z,88.23
2022-11-15T21:16:42.305Z,87.98
2022-11-15T21:19:10.632Z,88.13
2022-11-15T21:21:39.115Z,87.86
2022-11-15T21:24:08.996Z,87.80
2022-11-15T21:26:37.715Z,87.89
2022-11-15T21:29:06.197Z,87.75
2022-11-15T21:31:35.041Z,87.87
2022-11-15T21:34:04.084Z,87.78
2022-11-15T21:36:32.567Z,87.94
2022-11-15T21:39:01.048Z,88.11
2022-11-15T21:41:29.528Z,88.07
2022-11-15T21:44:02.003Z,88.24
2022-11-15T21:46:31.369Z,88.35
2022-11-15T21:48:59.684Z,88.59
2022-11-15T21:51:28.472Z,88.67
2022-11-15T21:53:57.159Z,88.62
2022-11-15T21:56:26.360Z,88.77
2022-11-15T21:58:55.606Z,89.09
2022-11-15T22:01:43.472Z,89.07
2022-11-15T22:04:12.556Z,89.01
2022-11-15T22:06:41.074Z,89.06
2022-11-15T22:09:09.350Z,89.19
2022-11-15T22:11:37.831Z,89.23
2022-11-15T22:14:06.627Z,89.07
2022-11-15T22:16:35.922Z,89.15
2022-11-15T22:19:04.199Z,88.92
2022-11-15T22:21:32.644Z,89.22
2022-11-15T22:24:01.472Z,89.35
2022-11-15T22:26:29.774Z,89.37
2022-11-15T22:28:58.230Z,89.39
2022-11-15T22:31:27.019Z,89.82
2022-11-15T22:33:55.398Z,90.18
2022-11-15T22:36:27.247Z,90.03
2022-11-15T22:39:02.089Z,90.25
2022-11-15T22:41:30.673Z,90.78
2022-11-15T22:43:58.949Z,90.50
2022-11-15T22:46:28.150Z,90.89
2022-11-15T22:48:59.672Z,90.74
2022-11-15T22:51:31.872Z,90.99
2022-11-15T22:54:00.557Z,91.34
2022-11-15T22:56:29.245Z,91.61
2022-11-15T22:58:57.832Z,91.65
2022-11-15T23:01:26.369Z,92.23
2022-11-15T23:03:54.869Z,92.11
2022-11-15T23:06:23.688Z,92.14
2022-11-15T23:08:52.678Z,92.25
2022-11-15T23:11:39.720Z,92.18
2022-11-15T23:14:08.585Z,92.23
2022-11-15T23:16:37.276Z,92.21
2022-11-15T23:19:09.921Z,92.22
2022-11-15T23:22:01.885Z,92.27
2022-11-15T23:24:31.256Z,92.26
2022-11-15T23:27:00.905Z,92.30
2022-11-15T23:29:30.199Z,92.55
2022-11-15T23:32:17.419Z,92.25
2022-11-15T23:34:46.313Z,92.09
2022-11-15T23:37:15.515Z,92.43
2022-11-15T23:39:44.367Z,92.29
2022-11-15T23:42:20.193Z,92.53
2022-11-15T23:44:51.158Z,92.30
2022-11-15T23:47:20.059Z,92.69
2022-11-15T23:49:48.772Z,93.09
2022-11-15T23:52:17.973Z,93.31
2022-11-15T23:54:46.582Z,93.27
2022-11-15T23:57:15.344Z,93.24
2022-11-15T23:59:44.018Z,93.47
